Time;durP1;ratioP1;P1;durP2;ratioP2;P2;SDS_P1;SDS_P2;PMS_P1;PMS_P2;Temp;Humidity;BMP_temperature;BMP_pressure;BME280_temperature;BME280_humidity;BME280_pressure;Samples;Min_cycle;Max_cycle;Signal;HPM_P1;HPM_P2
2023/11/27 00:01:58;;;;;;;7.73;4.43;;;5.80;99.90;;;;;;5090783;28;20483;-85
2023/11/27 00:04:26;;;;;;;9.43;4.07;;;5.70;99.90;;;;;;5085745;28;20505;-83
2023/11/27 00:06:52;;;;;;;5.70;3.63;;;5.70;99.90;;;;;;5092122;28;20477;-82
2023/11/27 00:09:19;;;;;;;5.10;3.40;;;5.80;99.90;;;;;;5083934;28;20454;-85
2023/11/27 00:11:46;;;;;;;6.50;3.70;;;5.80;99.90;;;;;;5084551;28;20490;-84
2023/11/27 00:14:13;;;;;;;8.23;3.23;;;5.80;99.90;;;;;;5088625;28;20454;-85
2023/11/27 00:16:40;;;;;;;9.33;3.43;;;5.80;99.90;;;;;;5087636;28;20473;-84
2023/11/27 00:19:07;;;;;;;7.23;4.30;;;5.90;99.90;;;;;;5086459;28;20546;-84
2023/11/27 00:21:35;;;;;;;4.87;3.10;;;5.80;99.90;;;;;;5087692;28;20458;-85
2023/11/27 00:24:06;;;;;;;6.03;3.90;;;5.80;99.90;;;;;;5084768;28;20457;-84
2023/11/27 00:26:33;;;;;;;5.80;2.50;;;5.90;99.90;;;;;;5088538;28;20481;-85
2023/11/27 00:28:59;;;;;;;6.60;4.10;;;5.90;99.90;;;;;;5087109;28;20461;-84
2023/11/27 00:31:27;;;;;;;7.40;4.97;;;5.80;99.90;;;;;;5087088;28;20578;-83
2023/11/27 00:33:53;;;;;;;8.87;3.60;;;5.80;99.90;;;;;;5085636;28;20465;-86
2023/11/27 00:36:20;;;;;;;6.23;3.17;;;5.90;99.90;;;;;;5090405;28;20462;-85
2023/11/27 00:38:48;;;;;;;8.67;4.00;;;5.90;99.90;;;;;;5083983;28;20891;-85
2023/11/27 00:41:15;;;;;;;4.70;3.33;;;5.90;99.90;;;;;;5088384;28;20456;-86
2023/11/27 00:43:42;;;;;;;5.30;2.93;;;5.90;99.90;;;;;;5087178;28;20544;-85
2023/11/27 00:46:09;;;;;;;4.47;3.10;;;5.90;99.90;;;;;;5087673;28;20455;-86
2023/11/27 00:48:36;;;;;;;7.37;3.17;;;5.80;99.90;;;;;;5087219;28;20445;-85
2023/11/27 00:51:03;;;;;;;7.43;3.70;;;5.90;99.90;;;;;;5081038;28;20568;-84
2023/11/27 00:53:30;;;;;;;9.00;3.40;;;5.80;99.90;;;;;;5087826;28;20950;-84
2023/11/27 00:55:58;;;;;;;10.80;3.87;;;5.80;99.90;;;;;;5086341;28;20457;-83
2023/11/27 00:58:25;;;;;;;7.30;3.07;;;5.80;99.90;;;;;;5086617;28;20466;-86
2023/11/27 01:00:54;;;;;;;7.10;3.80;;;5.80;99.90;;;;;;5084603;28;20466;-86
2023/11/27 01:03:22;;;;;;;11.70;3.63;;;5.70;99.90;;;;;;5094691;28;20452;-85
2023/11/27 01:05:49;;;;;;;7.73;3.70;;;5.70;99.90;;;;;;5079349;28;20465;-85
2023/11/27 01:08:16;;;;;;;5.50;3.90;;;5.80;99.90;;;;;;5087775;28;20487;-87
2023/11/27 01:10:43;;;;;;;5.83;3.23;;;5.80;99.90;;;;;;5086347;28;20459;-82
2023/11/27 01:13:11;;;;;;;7.80;3.03;;;5.80;99.90;;;;;;5088158;28;21040;-85
2023/11/27 01:15:38;;;;;;;5.60;2.90;;;5.80;99.90;;;;;;5093536;28;20458;-83
2023/11/27 01:18:05;;;;;;;8.63;3.43;;;5.80;99.90;;;;;;5087657;28;20476;-84
2023/11/27 01:20:32;;;;;;;5.53;3.07;;;5.80;99.90;;;;;;5092251;28;20450;-84
2023/11/27 01:22:58;;;;;;;5.50;3.70;;;5.90;99.90;;;;;;5089346;28;20905;-88
2023/11/27 01:25:25;;;;;;;8.70;4.57;;;5.70;99.90;;;;;;5089078;28;20462;-86
2023/11/27 01:27:54;;;;;;;7.90;3.50;;;5.60;99.90;;;;;;5090528;28;20916;-87
2023/11/27 01:30:22;;;;;;;7.20;4.13;;;5.60;99.90;;;;;;5088182;28;20832;-85
2023/11/27 01:32:49;;;;;;;5.93;3.60;;;5.60;99.90;;;;;;5089150;28;20576;-86
2023/11/27 01:35:16;;;;;;;6.70;3.93;;;5.60;99.90;;;;;;5093597;28;20468;-86
2023/11/27 01:37:43;;;;;;;6.30;3.87;;;5.60;99.90;;;;;;5092929;28;20477;-87
2023/11/27 01:40:10;;;;;;;9.17;3.87;;;5.50;99.90;;;;;;5091448;28;20544;-86
2023/11/27 01:42:37;;;;;;;9.10;4.20;;;5.40;99.90;;;;;;5090478;28;20458;-86
2023/11/27 01:45:08;;;;;;;7.53;3.30;;;5.40;99.90;;;;;;5100676;28;20525;-86
2023/11/27 01:47:36;;;;;;;12.53;5.10;;;5.40;99.90;;;;;;5099919;28;20510;-88
2023/11/27 01:50:05;;;;;;;7.97;3.13;;;5.40;99.90;;;;;;5099343;28;20903;-84
2023/11/27 01:52:33;;;;;;;9.57;4.30;;;5.30;99.90;;;;;;5097901;28;20478;-87
2023/11/27 01:55:00;;;;;;;14.33;5.20;;;5.40;99.90;;;;;;5097541;28;20453;-88
2023/11/27 01:57:28;;;;;;;10.67;3.73;;;5.30;99.90;;;;;;5096381;28;20478;-87
2023/11/27 01:59:56;;;;;;;8.90;4.87;;;5.30;99.90;;;;;;5097422;28;20464;-87
2023/11/27 02:02:23;;;;;;;5.97;4.07;;;5.30;99.90;;;;;;5098411;28;20968;-87
2023/11/27 02:04:52;;;;;;;5.73;4.13;;;5.30;99.90;;;;;;5097028;28;20948;-87
2023/11/27 02:07:19;;;;;;;7.43;4.27;;;5.30;99.90;;;;;;5096747;28;20507;-87
2023/11/27 02:09:45;;;;;;;7.33;3.83;;;5.30;99.90;;;;;;5097922;28;20465;-86
2023/11/27 02:12:12;;;;;;;6.97;4.00;;;5.20;99.90;;;;;;5098034;28;21066;-86
2023/11/27 02:14:39;;;;;;;6.53;4.77;;;5.20;99.90;;;;;;5095048;28;20551;-87
2023/11/27 02:17:06;;;;;;;7.53;4.20;;;5.20;99.90;;;;;;5097229;28;20477;-87
2023/11/27 02:19:33;;;;;;;8.97;3.90;;;5.20;99.90;;;;;;5095120;28;20438;-88
2023/11/27 02:22:02;;;;;;;5.33;3.90;;;5.20;99.90;;;;;;5094591;28;20465;-87
2023/11/27 02:24:30;;;;;;;7.13;4.30;;;5.20;99.90;;;;;;5096190;28;20446;-87
2023/11/27 02:26:57;;;;;;;7.53;4.57;;;5.20;99.90;;;;;;5095750;28;20472;-87
2023/11/27 02:29:24;;;;;;;8.77;4.40;;;5.20;99.90;;;;;;5095588;28;20472;-87
2023/11/27 02:31:50;;;;;;;8.43;4.43;;;5.20;99.90;;;;;;5095145;28;20497;-85
2023/11/27 02:34:18;;;;;;;7.17;4.50;;;5.20;99.90;;;;;;5089494;28;20539;-87
2023/11/27 02:36:44;;;;;;;8.00;4.10;;;5.20;99.90;;;;;;5092057;28;20470;-86
2023/11/27 02:39:14;;;;;;;7.83;4.77;;;5.10;99.90;;;;;;5087419;28;20473;-88
2023/11/27 02:41:42;;;;;;;11.80;3.77;;;5.10;99.90;;;;;;5095559;28;20669;-87
2023/11/27 02:44:09;;;;;;;11.20;4.87;;;5.10;99.90;;;;;;5087841;28;20446;-87
2023/11/27 02:46:39;;;;;;;6.40;4.37;;;5.00;99.90;;;;;;5095899;28;20866;-88
2023/11/27 02:49:05;;;;;;;5.93;4.40;;;5.10;99.90;;;;;;5083422;28;20457;-87
2023/11/27 02:51:38;;;;;;;7.40;4.03;;;5.10;99.90;;;;;;5088182;28;20450;-88
2023/11/27 02:54:05;;;;;;;6.57;4.03;;;5.10;99.90;;;;;;5094455;28;20459;-87
2023/11/27 02:56:32;;;;;;;5.50;3.73;;;5.10;99.90;;;;;;5090089;28;20553;-88
2023/11/27 02:59:00;;;;;;;7.73;4.03;;;5.10;99.90;;;;;;5096317;28;20462;-86
2023/11/27 03:01:27;;;;;;;5.90;4.43;;;5.00;99.90;;;;;;5097530;28;20619;-85
2023/11/27 03:03:54;;;;;;;9.67;5.40;;;5.00;99.90;;;;;;5096327;28;20461;-85
2023/11/27 03:06:21;;;;;;;6.47;3.87;;;5.00;99.90;;;;;;5095889;28;20458;-86
2023/11/27 03:08:47;;;;;;;9.33;4.67;;;5.00;99.90;;;;;;5096711;28;20456;-87
2023/11/27 03:11:14;;;;;;;6.60;4.20;;;5.00;99.90;;;;;;5096970;28;20464;-86
2023/11/27 03:13:41;;;;;;;6.53;4.97;;;5.00;99.90;;;;;;5095929;28;21015;-86
2023/11/27 03:16:10;;;;;;;8.20;5.40;;;5.00;99.90;;;;;;5095754;28;20834;-86
2023/11/27 03:18:37;;;;;;;7.60;4.80;;;5.00;99.90;;;;;;5087094;28;20523;-86
2023/11/27 03:21:05;;;;;;;5.97;4.47;;;5.00;99.90;;;;;;5093917;28;20905;-85
2023/11/27 03:23:32;;;;;;;8.50;5.10;;;5.10;99.90;;;;;;5095149;28;20562;-86
2023/11/27 03:26:01;;;;;;;7.43;4.63;;;5.10;99.90;;;;;;5096084;28;20465;-85
2023/11/27 03:28:31;;;;;;;11.03;4.93;;;5.10;99.90;;;;;;5096017;28;20486;-84
2023/11/27 03:30:57;;;;;;;9.10;5.30;;;5.10;99.90;;;;;;5095764;28;21068;-86
2023/11/27 03:33:26;;;;;;;6.27;4.40;;;5.00;99.90;;;;;;5094885;28;20489;-85
2023/11/27 03:35:52;;;;;;;9.10;5.20;;;5.00;99.90;;;;;;5094830;28;20463;-86
2023/11/27 03:38:19;;;;;;;7.40;4.77;;;5.00;99.90;;;;;;5099644;28;20509;-87
2023/11/27 03:40:46;;;;;;;8.97;4.23;;;5.10;99.90;;;;;;5097230;28;20457;-86
2023/11/27 03:43:13;;;;;;;5.93;4.60;;;5.10;99.90;;;;;;5093345;28;20457;-86
2023/11/27 03:45:39;;;;;;;6.50;4.33;;;5.00;99.90;;;;;;5097653;28;20454;-87
2023/11/27 03:48:06;;;;;;;5.80;3.73;;;4.90;99.90;;;;;;5086884;28;20488;-86
2023/11/27 03:50:34;;;;;;;6.93;4.47;;;5.00;99.90;;;;;;5092675;28;20454;-86
2023/11/27 03:53:01;;;;;;;7.60;4.20;;;4.90;99.90;;;;;;5098761;28;20477;-85
2023/11/27 03:55:28;;;;;;;6.63;4.60;;;5.00;99.90;;;;;;5097786;28;20461;-85
2023/11/27 03:57:55;;;;;;;8.00;5.13;;;5.00;99.90;;;;;;5088748;28;21073;-86
2023/11/27 04:00:22;;;;;;;6.77;5.17;;;5.00;99.90;;;;;;5098231;28;20544;-87
2023/11/27 04:02:51;;;;;;;6.27;4.40;;;5.00;99.90;;;;;;5100374;28;20457;-86
2023/11/27 04:05:19;;;;;;;8.23;4.80;;;5.00;99.90;;;;;;5096498;28;20886;-86
2023/11/27 04:07:47;;;;;;;5.97;4.60;;;5.00;99.90;;;;;;5096647;28;20527;-86
2023/11/27 04:10:16;;;;;;;6.43;4.07;;;5.00;99.90;;;;;;5096373;28;20453;-87
2023/11/27 04:12:44;;;;;;;8.60;6.23;;;5.00;99.90;;;;;;5095811;28;21147;-87
2023/11/27 04:15:12;;;;;;;10.20;6.37;;;5.00;99.90;;;;;;5087230;28;20454;-86
2023/11/27 04:17:39;;;;;;;5.93;5.23;;;4.90;99.90;;;;;;5094349;28;20475;-87
2023/11/27 04:20:11;;;;;;;7.63;5.57;;;4.90;99.90;;;;;;5091285;28;20446;-86
2023/11/27 04:22:38;;;;;;;11.73;6.20;;;4.90;99.90;;;;;;5091066;28;20446;-87
2023/11/27 04:25:07;;;;;;;5.47;4.87;;;5.00;99.90;;;;;;5094507;28;20451;-87
2023/11/27 04:27:35;;;;;;;4.67;4.17;;;4.90;99.90;;;;;;5094237;28;20481;-87
2023/11/27 04:30:02;;;;;;;10.80;5.00;;;4.90;99.90;;;;;;5094012;28;20468;-87
2023/11/27 04:32:29;;;;;;;7.30;5.30;;;5.00;99.90;;;;;;5094549;28;20489;-87
2023/11/27 04:34:55;;;;;;;11.07;5.73;;;5.00;99.90;;;;;;5094767;28;20460;-87
2023/11/27 04:37:22;;;;;;;12.27;5.83;;;5.10;99.90;;;;;;5095141;28;20481;-87
2023/11/27 04:39:51;;;;;;;7.30;5.00;;;5.00;99.90;;;;;;5094444;28;20989;-86
2023/11/27 04:42:19;;;;;;;7.73;5.37;;;5.00;99.90;;;;;;5108550;28;20488;-87
2023/11/27 04:44:46;;;;;;;12.50;5.70;;;5.10;99.90;;;;;;5113209;28;20473;-86
2023/11/27 04:47:13;;;;;;;8.13;5.27;;;5.10;99.90;;;;;;5103278;28;20481;-87
2023/11/27 04:49:43;;;;;;;7.60;5.70;;;5.10;99.90;;;;;;5112296;28;20464;-87
2023/11/27 04:52:10;;;;;;;7.47;5.60;;;5.10;99.90;;;;;;5103005;28;20502;-88
2023/11/27 04:54:40;;;;;;;8.53;5.60;;;5.10;99.90;;;;;;5097792;28;20548;-88
2023/11/27 04:57:09;;;;;;;9.03;5.73;;;5.10;99.90;;;;;;5097596;28;20877;-87
2023/11/27 04:59:38;;;;;;;8.83;6.13;;;5.00;99.90;;;;;;5099483;28;20458;-88
2023/11/27 05:02:05;;;;;;;8.43;6.47;;;4.90;99.90;;;;;;5100220;28;20821;-88
2023/11/27 05:04:33;;;;;;;10.33;5.57;;;5.00;99.90;;;;;;5099068;28;20457;-87
2023/11/27 05:07:00;;;;;;;7.17;5.53;;;4.90;99.90;;;;;;5100963;28;20855;-88
2023/11/27 05:09:27;;;;;;;13.00;6.70;;;4.80;99.90;;;;;;5098374;28;20529;-87
2023/11/27 05:11:54;;;;;;;8.60;5.80;;;4.80;99.90;;;;;;5097940;28;20457;-88
2023/11/27 05:14:21;;;;;;;11.27;6.90;;;4.80;99.90;;;;;;5097392;28;20489;-88
2023/11/27 05:16:49;;;;;;;6.10;5.50;;;4.90;99.90;;;;;;5086925;28;20482;-87
2023/11/27 05:19:16;;;;;;;8.50;6.00;;;4.90;99.90;;;;;;5090597;28;20457;-88
2023/11/27 05:21:43;;;;;;;11.73;6.90;;;5.00;99.90;;;;;;5098250;28;20460;-87
2023/11/27 05:24:10;;;;;;;16.10;9.10;;;5.00;99.90;;;;;;5092783;28;20976;-87
2023/11/27 05:26:36;;;;;;;8.00;6.40;;;4.90;99.90;;;;;;5095027;28;20552;-88
2023/11/27 05:29:04;;;;;;;10.30;6.30;;;5.00;99.90;;;;;;5093952;28;20909;-87
2023/11/27 05:31:31;;;;;;;8.13;6.70;;;4.90;99.90;;;;;;5096729;28;20463;-88
2023/11/27 05:33:59;;;;;;;9.43;5.37;;;5.00;99.90;;;;;;5099092;28;20493;-88
2023/11/27 05:36:26;;;;;;;7.00;6.13;;;5.00;99.90;;;;;;5098565;28;20856;-84
2023/11/27 05:38:53;;;;;;;10.40;6.10;;;5.00;99.90;;;;;;5090949;28;20468;-86
2023/11/27 05:41:22;;;;;;;9.23;5.90;;;5.00;99.90;;;;;;5097650;28;20469;-86
2023/11/27 05:43:48;;;;;;;7.17;5.40;;;5.00;99.90;;;;;;5094077;28;22328;-85
2023/11/27 05:46:18;;;;;;;9.97;6.70;;;4.90;99.90;;;;;;5096390;28;20453;-84
2023/11/27 05:48:44;;;;;;;9.00;5.57;;;5.00;99.90;;;;;;5097090;28;20464;-84
2023/11/27 05:51:12;;;;;;;10.70;6.20;;;4.90;99.90;;;;;;5095537;28;20465;-85
2023/11/27 05:53:39;;;;;;;9.37;6.13;;;4.90;99.90;;;;;;5095769;28;20486;-84
2023/11/27 05:56:08;;;;;;;10.93;5.63;;;4.80;99.90;;;;;;5096932;28;20465;-83
2023/11/27 05:58:35;;;;;;;15.10;6.00;;;4.80;99.90;;;;;;5099686;28;20463;-84
2023/11/27 06:01:02;;;;;;;7.60;5.63;;;4.90;99.90;;;;;;5095988;28;20475;-85
2023/11/27 06:03:29;;;;;;;8.50;5.40;;;4.90;99.90;;;;;;5093763;28;20462;-87
2023/11/27 06:05:56;;;;;;;9.03;5.77;;;4.80;99.90;;;;;;5099075;28;20467;-85
2023/11/27 06:08:25;;;;;;;8.40;5.10;;;4.90;99.90;;;;;;5090798;28;20480;-84
2023/11/27 06:10:51;;;;;;;5.47;4.70;;;4.90;99.90;;;;;;5082828;28;20528;-85
2023/11/27 06:13:18;;;;;;;9.13;4.87;;;4.90;99.90;;;;;;5089928;28;21090;-84
2023/11/27 06:15:46;;;;;;;9.70;5.47;;;4.90;99.90;;;;;;5086477;28;20471;-84
2023/11/27 06:18:14;;;;;;;8.03;5.07;;;4.90;99.90;;;;;;5086775;28;20480;-85
2023/11/27 06:20:41;;;;;;;7.17;4.97;;;4.80;99.90;;;;;;5095576;28;20451;-86
2023/11/27 06:23:08;;;;;;;8.70;5.00;;;5.00;99.90;;;;;;5095198;28;20454;-86
2023/11/27 06:25:39;;;;;;;6.87;4.90;;;4.90;99.90;;;;;;5098144;28;20940;-87
2023/11/27 06:28:07;;;;;;;10.30;5.60;;;4.90;99.90;;;;;;5091184;28;20502;-84
2023/11/27 06:30:34;;;;;;;7.60;4.70;;;4.80;99.90;;;;;;5089104;28;20464;-82
2023/11/27 06:33:00;;;;;;;7.30;4.83;;;4.80;99.90;;;;;;5089585;28;20568;-83
2023/11/27 06:35:27;;;;;;;4.77;4.17;;;4.80;99.90;;;;;;5090658;28;20457;-83
2023/11/27 06:37:54;;;;;;;9.00;4.90;;;4.90;99.90;;;;;;5094760;28;20489;-83
2023/11/27 06:40:24;;;;;;;5.90;5.13;;;4.90;99.90;;;;;;5089249;28;20462;-84
2023/11/27 06:42:52;;;;;;;5.67;3.90;;;4.80;99.90;;;;;;5090489;28;20457;-85
2023/11/27 06:45:19;;;;;;;7.83;4.53;;;4.90;99.90;;;;;;5087778;28;20997;-86
2023/11/27 06:47:46;;;;;;;11.27;4.53;;;4.90;99.90;;;;;;5091095;28;20472;-86
2023/11/27 06:50:13;;;;;;;5.73;3.90;;;4.90;99.90;;;;;;5089022;28;20468;-86
2023/11/27 06:52:40;;;;;;;7.03;4.50;;;4.90;99.90;;;;;;5091265;28;20540;-85
2023/11/27 06:55:08;;;;;;;6.43;4.80;;;4.90;99.90;;;;;;5086332;28;21092;-84
2023/11/27 06:57:38;;;;;;;6.20;4.07;;;4.90;99.90;;;;;;5095907;28;21047;-85
2023/11/27 07:00:10;;;;;;;6.70;4.07;;;4.90;99.90;;;;;;5092096;28;20980;-86
2023/11/27 07:02:37;;;;;;;15.10;4.20;;;4.90;99.90;;;;;;5092836;28;20456;-86
2023/11/27 07:05:05;;;;;;;9.10;4.03;;;4.90;99.90;;;;;;5090641;28;20536;-85
2023/11/27 07:07:32;;;;;;;7.23;4.40;;;4.80;99.90;;;;;;5090612;28;20468;-86
2023/11/27 07:10:02;;;;;;;8.63;4.00;;;4.80;99.90;;;;;;5093809;28;20457;-84
2023/11/27 07:12:29;;;;;;;7.13;4.53;;;4.80;99.90;;;;;;5093115;28;20456;-85
2023/11/27 07:14:56;;;;;;;7.20;4.47;;;4.80;99.90;;;;;;5093537;28;21105;-86
2023/11/27 07:17:24;;;;;;;6.73;4.13;;;4.70;99.90;;;;;;5096366;28;20830;-83
2023/11/27 07:19:52;;;;;;;6.10;4.60;;;4.70;99.90;;;;;;5095751;28;20482;-86
2023/11/27 07:22:19;;;;;;;7.67;5.03;;;4.70;99.90;;;;;;5090066;28;20898;-85
2023/11/27 07:24:46;;;;;;;7.63;4.90;;;4.70;99.90;;;;;;5092789;28;20456;-85
2023/11/27 07:27:13;;;;;;;7.57;4.73;;;4.70;99.90;;;;;;5091879;28;20477;-85
2023/11/27 07:29:40;;;;;;;6.43;4.33;;;4.70;99.90;;;;;;5087854;28;20911;-85
2023/11/27 07:32:08;;;;;;;9.50;5.07;;;4.70;99.90;;;;;;5089582;28;20443;-86
2023/11/27 07:34:37;;;;;;;6.80;4.30;;;4.70;99.90;;;;;;5086210;28;20490;-87
2023/11/27 07:37:04;;;;;;;9.00;4.60;;;4.60;99.90;;;;;;5088858;28;21170;-86
2023/11/27 07:39:32;;;;;;;5.63;4.53;;;4.70;99.90;;;;;;5084279;28;20456;-85
2023/11/27 07:41:58;;;;;;;6.97;5.20;;;4.60;99.90;;;;;;5089143;28;20467;-86
2023/11/27 07:44:26;;;;;;;7.63;4.10;;;4.60;99.90;;;;;;5093375;28;20444;-87
2023/11/27 07:46:52;;;;;;;4.37;3.80;;;4.70;99.90;;;;;;5090529;28;20821;-86
2023/11/27 07:49:19;;;;;;;4.63;3.30;;;4.60;99.90;;;;;;5090639;28;20461;-87
2023/11/27 07:51:47;;;;;;;5.83;3.90;;;4.60;99.90;;;;;;5085914;28;20451;-87
2023/11/27 07:54:23;;;;;;;4.47;3.70;;;4.50;99.90;;;;;;5085683;28;20490;-86
2023/11/27 07:56:51;;;;;;;6.70;4.47;;;4.50;99.90;;;;;;5090315;28;20861;-86
2023/11/27 07:59:18;;;;;;;6.20;4.03;;;4.50;99.90;;;;;;5086289;28;20457;-86
2023/11/27 08:01:45;;;;;;;5.73;3.77;;;4.50;99.90;;;;;;5087776;28;20452;-87
2023/11/27 08:04:12;;;;;;;7.93;4.70;;;4.50;99.90;;;;;;5087796;28;20452;-87
2023/11/27 08:06:39;;;;;;;6.23;3.53;;;4.50;99.90;;;;;;5083880;28;20949;-86
2023/11/27 08:09:08;;;;;;;5.00;3.53;;;4.50;99.90;;;;;;5088155;28;20528;-87
2023/11/27 08:11:35;;;;;;;4.83;3.50;;;4.60;99.90;;;;;;5091325;28;20457;-87
2023/11/27 08:14:02;;;;;;;6.00;3.30;;;4.60;99.90;;;;;;5085576;28;20490;-87
2023/11/27 08:16:30;;;;;;;8.23;4.23;;;4.80;99.90;;;;;;5095217;28;20564;-86
2023/11/27 08:18:56;;;;;;;4.07;3.50;;;4.70;99.90;;;;;;5086718;28;22239;-86
2023/11/27 08:21:24;;;;;;;5.63;2.77;;;4.70;99.90;;;;;;5091622;28;20455;-86
2023/11/27 08:23:51;;;;;;;6.40;3.00;;;4.80;99.90;;;;;;5097058;28;20474;-85
2023/11/27 08:26:20;;;;;;;3.90;2.73;;;4.70;99.90;;;;;;5093289;28;20460;-87
2023/11/27 08:28:47;;;;;;;5.43;3.50;;;4.70;99.90;;;;;;5088333;28;20476;-84
2023/11/27 08:31:18;;;;;;;5.53;3.43;;;4.50;99.90;;;;;;5094073;28;20461;-83
2023/11/27 08:33:46;;;;;;;5.03;3.70;;;4.50;99.90;;;;;;5089906;28;20511;-84
2023/11/27 08:36:13;;;;;;;5.50;3.10;;;4.50;99.90;;;;;;5092808;28;20468;-85
2023/11/27 08:38:40;;;;;;;5.00;2.70;;;4.50;99.90;;;;;;5087957;28;20467;-86
2023/11/27 08:41:07;;;;;;;2.97;2.50;;;4.50;99.90;;;;;;5090252;28;21203;-87
2023/11/27 08:43:39;;;;;;;3.90;2.50;;;4.50;99.90;;;;;;5094700;28;20913;-87
2023/11/27 08:46:06;;;;;;;4.23;3.03;;;4.50;99.90;;;;;;5089219;28;20462;-86
2023/11/27 08:48:33;;;;;;;5.57;2.70;;;4.50;99.90;;;;;;5086677;28;20949;-86
2023/11/27 08:51:00;;;;;;;3.63;3.07;;;4.50;99.90;;;;;;5091337;28;20480;-86
2023/11/27 08:53:29;;;;;;;5.30;3.30;;;4.40;99.90;;;;;;5091082;28;20459;-85
2023/11/27 08:55:57;;;;;;;3.50;2.53;;;4.40;99.90;;;;;;5084953;28;20467;-86
2023/11/27 08:58:24;;;;;;;4.87;2.83;;;4.50;99.90;;;;;;5089084;28;20511;-88
2023/11/27 09:00:53;;;;;;;6.67;4.00;;;4.50;99.90;;;;;;5086902;28;20449;-86
2023/11/27 09:03:20;;;;;;;2.83;2.37;;;4.40;99.90;;;;;;5085303;28;20461;-87
2023/11/27 09:05:47;;;;;;;3.43;2.17;;;4.40;99.90;;;;;;5090021;28;20461;-87
2023/11/27 09:08:15;;;;;;;2.33;1.87;;;4.40;99.90;;;;;;5085591;28;20469;-88
2023/11/27 09:10:44;;;;;;;3.13;2.53;;;4.40;99.90;;;;;;5090869;28;20467;-86
2023/11/27 09:13:12;;;;;;;2.73;2.17;;;4.40;99.90;;;;;;5089757;28;20484;-87
2023/11/27 09:15:38;;;;;;;3.43;2.40;;;4.30;99.90;;;;;;5080574;28;20495;-87
2023/11/27 09:18:07;;;;;;;2.40;1.70;;;4.40;99.90;;;;;;5088089;28;20503;-87
2023/11/27 09:20:34;;;;;;;3.73;2.00;;;4.50;99.90;;;;;;5090188;28;20459;-87
2023/11/27 09:23:01;;;;;;;2.20;1.70;;;4.40;99.90;;;;;;5086765;28;20455;-87
2023/11/27 09:25:28;;;;;;;2.80;1.80;;;4.40;99.90;;;;;;5082374;28;20793;-86
2023/11/27 09:27:55;;;;;;;2.30;1.83;;;4.40;99.90;;;;;;5085221;28;20486;-86
2023/11/27 09:30:22;;;;;;;2.27;1.63;;;4.50;99.90;;;;;;5079701;28;20463;-87
2023/11/27 09:32:51;;;;;;;2.07;1.47;;;4.40;99.90;;;;;;5093614;28;20465;-86
2023/11/27 09:35:19;;;;;;;7.40;1.73;;;4.30;99.90;;;;;;5086458;28;20519;-87
2023/11/27 09:37:46;;;;;;;2.87;1.80;;;4.40;99.90;;;;;;5082738;28;20929;-87
2023/11/27 09:40:15;;;;;;;2.30;1.83;;;4.30;99.90;;;;;;5086797;28;20466;-85
2023/11/27 09:42:42;;;;;;;1.87;1.37;;;4.30;99.90;;;;;;5085153;28;20472;-86
2023/11/27 09:45:11;;;;;;;4.50;2.00;;;4.30;99.90;;;;;;5078919;28;20471;-86
2023/11/27 09:47:39;;;;;;;2.63;1.30;;;4.30;99.90;;;;;;5080702;28;20971;-87
2023/11/27 09:50:09;;;;;;;3.20;1.67;;;4.30;99.90;;;;;;5090572;28;20440;-86
2023/11/27 09:52:52;;;;;;;34.10;11.53;;;4.30;99.90;;;;;;5088044;28;20469;-86
2023/11/27 09:55:21;;;;;;;6.23;2.63;;;4.20;99.90;;;;;;5082334;28;20475;-87
2023/11/27 09:57:49;;;;;;;3.83;1.93;;;4.20;99.90;;;;;;5091507;28;20475;-87
2023/11/27 10:00:19;;;;;;;5.83;1.20;;;4.30;99.90;;;;;;5090013;28;20439;-86
2023/11/27 10:02:48;;;;;;;1.83;1.47;;;4.20;99.90;;;;;;5091500;28;20518;-87
2023/11/27 10:05:18;;;;;;;1.90;1.10;;;4.30;99.90;;;;;;5086738;28;20465;-87
2023/11/27 10:07:49;;;;;;;1.70;1.20;;;4.20;99.90;;;;;;5084086;28;20477;-87
2023/11/27 10:10:17;;;;;;;1.60;0.90;;;4.30;99.90;;;;;;5083055;28;20457;-86
2023/11/27 10:12:47;;;;;;;1.73;1.27;;;4.30;99.90;;;;;;5087668;28;20515;-85
2023/11/27 10:15:16;;;;;;;1.93;1.53;;;4.30;99.90;;;;;;5086844;28;20615;-87
2023/11/27 10:17:45;;;;;;;1.60;1.03;;;4.20;99.90;;;;;;5086369;28;20509;-85
2023/11/27 10:20:13;;;;;;;1.50;0.93;;;4.20;99.90;;;;;;5078878;28;20449;-87
2023/11/27 10:22:41;;;;;;;1.90;1.40;;;4.10;99.90;;;;;;5085309;28;20455;-84
2023/11/27 10:25:13;;;;;;;1.70;1.10;;;4.20;99.90;;;;;;5087751;28;20460;-83
2023/11/27 10:27:41;;;;;;;1.60;1.10;;;4.20;99.90;;;;;;5090672;28;20504;-85
2023/11/27 10:30:18;;;;;;;2.40;1.10;;;4.20;99.90;;;;;;5096857;28;20521;-86
2023/11/27 10:32:46;;;;;;;1.80;1.53;;;4.30;99.90;;;;;;5087832;28;20468;-85
2023/11/27 10:35:13;;;;;;;2.27;1.60;;;4.30;99.90;;;;;;5083652;28;20495;-86
2023/11/27 10:37:41;;;;;;;1.70;1.17;;;4.30;99.90;;;;;;5087989;28;21236;-85
2023/11/27 10:40:13;;;;;;;1.50;1.00;;;4.30;99.90;;;;;;5083807;28;20460;-85
2023/11/27 10:42:47;;;;;;;1.73;1.10;;;4.30;99.90;;;;;;5083320;28;20839;-85
2023/11/27 10:45:16;;;;;;;1.80;1.20;;;4.40;99.90;;;;;;5087437;28;20461;-87
2023/11/27 10:47:47;;;;;;;1.40;0.90;;;4.30;99.90;;;;;;5088643;28;21060;-86
2023/11/27 10:50:14;;;;;;;1.60;1.00;;;4.30;99.90;;;;;;5083323;28;20449;-87
2023/11/27 10:52:44;;;;;;;1.60;0.90;;;4.30;99.90;;;;;;5094797;28;20477;-86
2023/11/27 10:55:15;;;;;;;1.77;1.17;;;4.30;99.90;;;;;;5087877;28;20546;-85
2023/11/27 10:57:44;;;;;;;2.10;1.10;;;4.40;99.90;;;;;;5091423;28;20549;-85
2023/11/27 11:00:14;;;;;;;2.00;1.10;;;4.40;99.90;;;;;;5084554;28;20453;-85
2023/11/27 11:02:42;;;;;;;1.63;1.03;;;4.20;99.90;;;;;;5085884;28;20956;-84
2023/11/27 11:05:14;;;;;;;1.97;1.13;;;4.30;99.90;;;;;;5079196;28;20580;-85
2023/11/27 11:07:46;;;;;;;1.40;0.90;;;4.30;99.90;;;;;;5088749;28;20478;-84
2023/11/27 11:10:15;;;;;;;1.60;1.10;;;4.40;99.90;;;;;;5092124;28;20475;-85
2023/11/27 11:12:43;;;;;;;1.80;1.10;;;4.40;99.90;;;;;;5093507;28;20557;-84
2023/11/27 11:15:13;;;;;;;2.13;1.10;;;4.40;99.90;;;;;;5083990;28;20531;-84
2023/11/27 11:17:50;;;;;;;3.90;1.30;;;4.50;99.90;;;;;;5081404;28;20464;-85
2023/11/27 11:20:28;;;;;;;1.60;0.90;;;4.40;99.90;;;;;;5085229;28;20485;-84
2023/11/27 11:23:07;;;;;;;2.50;1.20;;;4.30;99.90;;;;;;5089608;28;20533;-83
2023/11/27 11:25:45;;;;;;;1.87;1.40;;;4.30;99.90;;;;;;5091389;28;20454;-85
2023/11/27 11:28:16;;;;;;;1.50;0.93;;;4.20;99.90;;;;;;5087400;28;20478;-85
2023/11/27 11:30:44;;;;;;;1.70;1.27;;;4.20;99.90;;;;;;5085124;28;20532;-85
2023/11/27 11:33:17;;;;;;;1.70;1.10;;;4.20;99.90;;;;;;5082662;28;20951;-85
2023/11/27 11:35:46;;;;;;;1.90;1.10;;;4.20;99.90;;;;;;5082152;28;20487;-85
2023/11/27 11:38:18;;;;;;;1.70;1.23;;;4.30;99.90;;;;;;5089632;28;20475;-85
2023/11/27 11:40:51;;;;;;;1.97;1.43;;;4.30;99.90;;;;;;5085929;28;20519;-85
2023/11/27 11:43:18;;;;;;;1.70;1.20;;;4.30;99.90;;;;;;5080052;28;20445;-85
2023/11/27 11:45:46;;;;;;;2.50;1.80;;;4.40;99.90;;;;;;5079701;28;20529;-85
2023/11/27 11:48:15;;;;;;;1.60;1.00;;;4.30;99.90;;;;;;5080282;28;20463;-84
2023/11/27 11:50:42;;;;;;;1.73;1.00;;;4.30;99.90;;;;;;5090216;28;20443;-84
2023/11/27 11:53:41;;;;;;;1.60;1.00;;;4.20;99.90;;;;;;5089208;28;20465;-83
2023/11/27 11:56:20;;;;;;;2.00;1.13;;;4.30;99.90;;;;;;5085639;28;21011;-85
2023/11/27 11:58:49;;;;;;;1.87;1.10;;;4.30;99.90;;;;;;5076817;28;20990;-85
2023/11/27 12:01:19;;;;;;;1.93;1.27;;;4.30;99.90;;;;;;5082518;28;20451;-84
2023/11/27 12:03:46;;;;;;;2.03;1.30;;;4.30;99.90;;;;;;5086361;28;20464;-84
2023/11/27 12:06:16;;;;;;;3.00;1.30;;;4.30;99.90;;;;;;5084119;28;20504;-84
2023/11/27 12:08:45;;;;;;;1.57;1.17;;;4.40;99.90;;;;;;5088420;28;20514;-83
2023/11/27 12:11:14;;;;;;;1.90;1.63;;;4.50;99.90;;;;;;5089849;28;20458;-82
2023/11/27 12:13:44;;;;;;;1.70;1.17;;;4.40;99.90;;;;;;5079964;28;20474;-85
2023/11/27 12:16:12;;;;;;;2.87;1.30;;;4.50;99.90;;;;;;5084641;28;21022;-85
2023/11/27 12:18:42;;;;;;;1.73;1.20;;;4.40;99.90;;;;;;5084332;28;20509;-85
2023/11/27 12:21:11;;;;;;;1.80;1.10;;;4.30;99.90;;;;;;5085872;28;20478;-86
2023/11/27 12:23:40;;;;;;;1.70;1.40;;;4.40;99.90;;;;;;5088286;28;20498;-86
2023/11/27 12:26:09;;;;;;;1.97;1.20;;;4.50;99.90;;;;;;5087454;28;20474;-85
2023/11/27 12:28:36;;;;;;;1.43;0.93;;;4.60;99.90;;;;;;5085230;28;20850;-86
2023/11/27 12:31:06;;;;;;;1.60;1.17;;;4.50;99.90;;;;;;5081805;28;20457;-86
2023/11/27 12:33:34;;;;;;;1.70;1.00;;;4.60;99.90;;;;;;5079892;28;20495;-85
2023/11/27 12:36:04;;;;;;;1.80;1.07;;;4.60;99.90;;;;;;5096119;28;20467;-87
2023/11/27 12:38:34;;;;;;;1.80;1.10;;;4.70;99.90;;;;;;5089927;28;20484;-85
2023/11/27 12:41:08;;;;;;;3.00;1.30;;;4.80;99.90;;;;;;5087335;28;20957;-86
2023/11/27 12:43:36;;;;;;;1.77;1.10;;;4.80;99.90;;;;;;5084275;28;20478;-86
2023/11/27 12:46:13;;;;;;;2.57;1.00;;;5.00;99.90;;;;;;5088681;28;20461;-86
2023/11/27 12:48:43;;;;;;;2.00;1.30;;;4.80;99.90;;;;;;5085013;28;20468;-87
2023/11/27 12:51:18;;;;;;;1.57;1.00;;;4.80;99.90;;;;;;5085924;28;20444;-84
2023/11/27 12:53:47;;;;;;;2.83;0.97;;;4.80;99.90;;;;;;5084348;28;20445;-84
2023/11/27 12:56:23;;;;;;;1.63;1.17;;;4.90;99.90;;;;;;5086414;28;20494;-85
2023/11/27 12:58:51;;;;;;;2.03;1.10;;;4.90;99.90;;;;;;5081374;28;20687;-87
2023/11/27 13:01:25;;;;;;;1.60;1.10;;;4.90;99.90;;;;;;5090726;28;20520;-86